sensor_id;sensor_type;location;lat;lon;timestamp;P1;durP1;ratioP1;P2;durP2;ratioP2
16973;SDS011;8603;46.944;7.412;2023-08-01T00:00:40;11.75;;;7.07;;
16973;SDS011;8603;46.944;7.412;2023-08-01T00:03:05;9.13;;;6.50;;
16973;SDS011;8603;46.944;7.412;2023-08-01T00:05:31;9.85;;;7.18;;
16973;SDS011;8603;46.944;7.412;2023-08-01T00:07:56;8.27;;;7.03;;
16973;SDS011;8603;46.944;7.412;2023-08-01T00:10:22;8.95;;;7.63;;
16973;SDS011;8603;46.944;7.412;2023-08-01T00:12:48;9.68;;;8.25;;
16973;SDS011;8603;46.944;7.412;2023-08-01T00:15:13;10.65;;;7.95;;
16973;SDS011;8603;46.944;7.412;2023-08-01T00:17:39;8.38;;;7.47;;
16973;SDS011;8603;46.944;7.412;2023-08-01T00:20:05;9.73;;;7.47;;
16973;SDS011;8603;46.944;7.412;2023-08-01T00:22:32;9.00;;;7.65;;
16973;SDS011;8603;46.944;7.412;2023-08-01T00:24:57;10.25;;;7.95;;
16973;SDS011;8603;46.944;7.412;2023-08-01T00:27:23;10.27;;;8.25;;
16973;SDS011;8603;46.944;7.412;2023-08-01T00:29:49;10.85;;;7.90;;
16973;SDS011;8603;46.944;7.412;2023-08-01T00:32:14;9.15;;;6.93;;
16973;SDS011;8603;46.944;7.412;2023-08-01T00:34:40;10.20;;;8.38;;
16973;SDS011;8603;46.944;7.412;2023-08-01T00:37:06;8.45;;;6.47;;
16973;SDS011;8603;46.944;7.412;2023-08-01T00:39:31;9.52;;;7.50;;
16973;SDS011;8603;46.944;7.412;2023-08-01T00:41:57;8.35;;;7.25;;
16973;SDS011;8603;46.944;7.412;2023-08-01T00:44:24;9.82;;;8.18;;
16973;SDS011;8603;46.944;7.412;2023-08-01T00:46:49;7.72;;;6.80;;
16973;SDS011;8603;46.944;7.412;2023-08-01T00:49:15;10.27;;;7.60;;
16973;SDS011;8603;46.944;7.412;2023-08-01T00:51:41;10.55;;;9.07;;
16973;SDS011;8603;46.944;7.412;2023-08-01T00:54:08;13.20;;;9.32;;
16973;SDS011;8603;46.944;7.412;2023-08-01T00:56:33;9.18;;;7.75;;
16973;SDS011;8603;46.944;7.412;2023-08-01T00:59:00;10.07;;;6.20;;
16973;SDS011;8603;46.944;7.412;2023-08-01T01:01:26;7.97;;;5.88;;
16973;SDS011;8603;46.944;7.412;2023-08-01T01:03:51;7.07;;;5.07;;
16973;SDS011;8603;46.944;7.412;2023-08-01T01:06:22;6.35;;;5.43;;
16973;SDS011;8603;46.944;7.412;2023-08-01T01:08:53;5.90;;;4.07;;
16973;SDS011;8603;46.944;7.412;2023-08-01T01:11:20;5.22;;;4.18;;
16973;SDS011;8603;46.944;7.412;2023-08-01T01:13:46;4.93;;;3.65;;
16973;SDS011;8603;46.944;7.412;2023-08-01T01:16:11;4.60;;;3.33;;
16973;SDS011;8603;46.944;7.412;2023-08-01T01:18:37;5.60;;;4.28;;
16973;SDS011;8603;46.944;7.412;2023-08-01T01:21:02;5.20;;;3.33;;
16973;SDS011;8603;46.944;7.412;2023-08-01T01:23:28;5.78;;;4.28;;
16973;SDS011;8603;46.944;7.412;2023-08-01T01:25:54;5.20;;;3.42;;
16973;SDS011;8603;46.944;7.412;2023-08-01T01:28:22;7.20;;;3.83;;
16973;SDS011;8603;46.944;7.412;2023-08-01T01:30:49;3.80;;;3.40;;
16973;SDS011;8603;46.944;7.412;2023-08-01T01:33:16;4.85;;;3.65;;
16973;SDS011;8603;46.944;7.412;2023-08-01T01:35:42;6.65;;;3.85;;
16973;SDS011;8603;46.944;7.412;2023-08-01T01:38:07;4.43;;;3.45;;
16973;SDS011;8603;46.944;7.412;2023-08-01T01:40:33;5.38;;;3.97;;
16973;SDS011;8603;46.944;7.412;2023-08-01T01:42:59;4.28;;;3.25;;
16973;SDS011;8603;46.944;7.412;2023-08-01T01:45:26;5.05;;;3.38;;
16973;SDS011;8603;46.944;7.412;2023-08-01T01:47:52;5.43;;;3.08;;
16973;SDS011;8603;46.944;7.412;2023-08-01T01:50:18;6.15;;;2.95;;
16973;SDS011;8603;46.944;7.412;2023-08-01T01:52:44;5.15;;;3.35;;
16973;SDS011;8603;46.944;7.412;2023-08-01T01:55:10;4.32;;;3.47;;
16973;SDS011;8603;46.944;7.412;2023-08-01T01:57:36;4.00;;;3.00;;
16973;SDS011;8603;46.944;7.412;2023-08-01T02:00:05;4.70;;;3.55;;
16973;SDS011;8603;46.944;7.412;2023-08-01T02:02:35;3.90;;;3.17;;
16973;SDS011;8603;46.944;7.412;2023-08-01T02:05:01;3.60;;;3.00;;
16973;SDS011;8603;46.944;7.412;2023-08-01T02:07:28;4.65;;;3.40;;
16973;SDS011;8603;46.944;7.412;2023-08-01T02:09:54;6.78;;;3.42;;
16973;SDS011;8603;46.944;7.412;2023-08-01T02:12:20;5.75;;;3.38;;
16973;SDS011;8603;46.944;7.412;2023-08-01T02:14:45;6.57;;;3.25;;
16973;SDS011;8603;46.944;7.412;2023-08-01T02:17:11;4.72;;;3.08;;
16973;SDS011;8603;46.944;7.412;2023-08-01T02:19:36;4.85;;;3.30;;
16973;SDS011;8603;46.944;7.412;2023-08-01T02:22:02;3.75;;;3.03;;
16973;SDS011;8603;46.944;7.412;2023-08-01T02:24:28;4.78;;;3.05;;
16973;SDS011;8603;46.944;7.412;2023-08-01T02:26:53;4.15;;;3.35;;
16973;SDS011;8603;46.944;7.412;2023-08-01T02:29:19;4.55;;;3.20;;
16973;SDS011;8603;46.944;7.412;2023-08-01T02:31:44;4.60;;;3.22;;
16973;SDS011;8603;46.944;7.412;2023-08-01T02:34:10;5.00;;;3.25;;
16973;SDS011;8603;46.944;7.412;2023-08-01T02:36:35;5.60;;;3.22;;
16973;SDS011;8603;46.944;7.412;2023-08-01T02:39:01;4.13;;;3.28;;
16973;SDS011;8603;46.944;7.412;2023-08-01T02:41:26;5.10;;;3.42;;
16973;SDS011;8603;46.944;7.412;2023-08-01T02:43:53;3.92;;;3.13;;
16973;SDS011;8603;46.944;7.412;2023-08-01T02:46:21;4.80;;;3.30;;
16973;SDS011;8603;46.944;7.412;2023-08-01T02:48:48;4.43;;;3.42;;
16973;SDS011;8603;46.944;7.412;2023-08-01T02:51:13;4.55;;;3.03;;
16973;SDS011;8603;46.944;7.412;2023-08-01T02:53:39;3.20;;;2.65;;
16973;SDS011;8603;46.944;7.412;2023-08-01T02:56:07;4.88;;;3.40;;
16973;SDS011;8603;46.944;7.412;2023-08-01T02:58:35;4.57;;;2.67;;
16973;SDS011;8603;46.944;7.412;2023-08-01T03:01:01;3.78;;;3.00;;
16973;SDS011;8603;46.944;7.412;2023-08-01T03:03:34;4.90;;;3.00;;
16973;SDS011;8603;46.944;7.412;2023-08-01T03:06:00;3.78;;;3.00;;
16973;SDS011;8603;46.944;7.412;2023-08-01T03:08:26;4.07;;;2.85;;
16973;SDS011;8603;46.944;7.412;2023-08-01T03:10:53;4.32;;;3.20;;
16973;SDS011;8603;46.944;7.412;2023-08-01T03:13:19;4.57;;;3.15;;
16973;SDS011;8603;46.944;7.412;2023-08-01T03:15:45;4.85;;;3.30;;
16973;SDS011;8603;46.944;7.412;2023-08-01T03:18:10;4.05;;;3.10;;
16973;SDS011;8603;46.944;7.412;2023-08-01T03:20:36;3.78;;;2.70;;
16973;SDS011;8603;46.944;7.412;2023-08-01T03:23:02;4.25;;;2.97;;
16973;SDS011;8603;46.944;7.412;2023-08-01T03:25:27;4.47;;;3.28;;
16973;SDS011;8603;46.944;7.412;2023-08-01T03:27:53;3.55;;;3.10;;
16973;SDS011;8603;46.944;7.412;2023-08-01T03:30:19;3.97;;;2.97;;
16973;SDS011;8603;46.944;7.412;2023-08-01T03:32:45;4.00;;;3.10;;
16973;SDS011;8603;46.944;7.412;2023-08-01T03:35:11;3.50;;;2.95;;
16973;SDS011;8603;46.944;7.412;2023-08-01T03:37:39;3.33;;;2.90;;
16973;SDS011;8603;46.944;7.412;2023-08-01T03:40:05;4.47;;;3.10;;
16973;SDS011;8603;46.944;7.412;2023-08-01T03:42:35;5.60;;;3.40;;
16973;SDS011;8603;46.944;7.412;2023-08-01T03:45:01;4.15;;;2.88;;
16973;SDS011;8603;46.944;7.412;2023-08-01T03:47:27;4.75;;;2.80;;
16973;SDS011;8603;46.944;7.412;2023-08-01T03:49:53;4.10;;;3.15;;
16973;SDS011;8603;46.944;7.412;2023-08-01T03:52:18;3.72;;;2.92;;
16973;SDS011;8603;46.944;7.412;2023-08-01T03:54:44;3.95;;;2.92;;
16973;SDS011;8603;46.944;7.412;2023-08-01T03:57:09;5.43;;;3.10;;
16973;SDS011;8603;46.944;7.412;2023-08-01T03:59:35;7.93;;;3.10;;
16973;SDS011;8603;46.944;7.412;2023-08-01T04:02:01;4.93;;;3.40;;
16973;SDS011;8603;46.944;7.412;2023-08-01T04:04:26;2.75;;;2.45;;
16973;SDS011;8603;46.944;7.412;2023-08-01T04:06:52;4.22;;;2.90;;
16973;SDS011;8603;46.944;7.412;2023-08-01T04:09:18;4.00;;;2.97;;
16973;SDS011;8603;46.944;7.412;2023-08-01T04:11:43;4.22;;;2.80;;
16973;SDS011;8603;46.944;7.412;2023-08-01T04:14:09;4.07;;;3.40;;
16973;SDS011;8603;46.944;7.412;2023-08-01T04:16:34;4.32;;;3.13;;
16973;SDS011;8603;46.944;7.412;2023-08-01T04:19:00;4.45;;;3.20;;
16973;SDS011;8603;46.944;7.412;2023-08-01T04:21:25;4.47;;;3.20;;
16973;SDS011;8603;46.944;7.412;2023-08-01T04:23:51;4.18;;;3.08;;
16973;SDS011;8603;46.944;7.412;2023-08-01T04:26:16;3.22;;;2.72;;
16973;SDS011;8603;46.944;7.412;2023-08-01T04:28:42;6.53;;;3.38;;
16973;SDS011;8603;46.944;7.412;2023-08-01T04:31:07;5.75;;;3.22;;
16973;SDS011;8603;46.944;7.412;2023-08-01T04:33:33;3.75;;;3.05;;
16973;SDS011;8603;46.944;7.412;2023-08-01T04:35:58;4.20;;;3.20;;
16973;SDS011;8603;46.944;7.412;2023-08-01T04:38:24;4.57;;;3.10;;
16973;SDS011;8603;46.944;7.412;2023-08-01T04:40:49;4.82;;;3.20;;
16973;SDS011;8603;46.944;7.412;2023-08-01T04:43:15;6.07;;;3.20;;
16973;SDS011;8603;46.944;7.412;2023-08-01T04:45:41;3.88;;;3.03;;
16973;SDS011;8603;46.944;7.412;2023-08-01T04:48:06;4.07;;;3.20;;
16973;SDS011;8603;46.944;7.412;2023-08-01T04:50:32;4.45;;;3.40;;
16973;SDS011;8603;46.944;7.412;2023-08-01T04:52:57;4.68;;;3.25;;
16973;SDS011;8603;46.944;7.412;2023-08-01T04:55:23;5.25;;;3.20;;
16973;SDS011;8603;46.944;7.412;2023-08-01T04:57:48;4.25;;;3.10;;
16973;SDS011;8603;46.944;7.412;2023-08-01T05:00:14;3.45;;;3.03;;
16973;SDS011;8603;46.944;7.412;2023-08-01T05:02:39;4.72;;;3.22;;
16973;SDS011;8603;46.944;7.412;2023-08-01T05:05:05;4.50;;;2.95;;
16973;SDS011;8603;46.944;7.412;2023-08-01T05:07:31;4.28;;;3.40;;
16973;SDS011;8603;46.944;7.412;2023-08-01T05:09:57;4.63;;;3.25;;
16973;SDS011;8603;46.944;7.412;2023-08-01T05:12:22;4.35;;;3.22;;
16973;SDS011;8603;46.944;7.412;2023-08-01T05:14:48;5.97;;;3.13;;
16973;SDS011;8603;46.944;7.412;2023-08-01T05:17:13;5.05;;;3.35;;
16973;SDS011;8603;46.944;7.412;2023-08-01T05:19:39;5.47;;;3.10;;
16973;SDS011;8603;46.944;7.412;2023-08-01T05:22:05;4.32;;;3.03;;
16973;SDS011;8603;46.944;7.412;2023-08-01T05:24:30;4.30;;;3.22;;
16973;SDS011;8603;46.944;7.412;2023-08-01T05:26:56;3.35;;;3.05;;
16973;SDS011;8603;46.944;7.412;2023-08-01T05:29:21;3.58;;;3.17;;
16973;SDS011;8603;46.944;7.412;2023-08-01T05:31:47;5.28;;;3.00;;
16973;SDS011;8603;46.944;7.412;2023-08-01T05:34:12;3.28;;;2.97;;
16973;SDS011;8603;46.944;7.412;2023-08-01T05:36:38;4.13;;;3.30;;
16973;SDS011;8603;46.944;7.412;2023-08-01T05:39:03;3.35;;;3.05;;
16973;SDS011;8603;46.944;7.412;2023-08-01T05:41:29;3.13;;;2.83;;
16973;SDS011;8603;46.944;7.412;2023-08-01T05:43:57;4.78;;;3.40;;
16973;SDS011;8603;46.944;7.412;2023-08-01T05:46:23;4.53;;;3.22;;
16973;SDS011;8603;46.944;7.412;2023-08-01T05:48:49;3.50;;;2.65;;
16973;SDS011;8603;46.944;7.412;2023-08-01T05:51:14;4.85;;;3.38;;
16973;SDS011;8603;46.944;7.412;2023-08-01T05:53:40;4.65;;;3.05;;
16973;SDS011;8603;46.944;7.412;2023-08-01T05:56:05;4.85;;;3.33;;
16973;SDS011;8603;46.944;7.412;2023-08-01T05:58:31;6.80;;;3.47;;
16973;SDS011;8603;46.944;7.412;2023-08-01T06:00:57;5.30;;;3.25;;
16973;SDS011;8603;46.944;7.412;2023-08-01T06:03:22;5.28;;;3.30;;
16973;SDS011;8603;46.944;7.412;2023-08-01T06:05:48;5.13;;;3.25;;
16973;SDS011;8603;46.944;7.412;2023-08-01T06:08:14;5.10;;;3.22;;
16973;SDS011;8603;46.944;7.412;2023-08-01T06:10:40;4.68;;;2.90;;
16973;SDS011;8603;46.944;7.412;2023-08-01T06:13:07;3.88;;;3.00;;
16973;SDS011;8603;46.944;7.412;2023-08-01T06:15:32;5.20;;;3.30;;
16973;SDS011;8603;46.944;7.412;2023-08-01T06:17:58;4.28;;;2.95;;
16973;SDS011;8603;46.944;7.412;2023-08-01T06:20:23;4.63;;;2.92;;
16973;SDS011;8603;46.944;7.412;2023-08-01T06:22:49;4.85;;;3.03;;
16973;SDS011;8603;46.944;7.412;2023-08-01T06:25:15;6.30;;;3.40;;
16973;SDS011;8603;46.944;7.412;2023-08-01T06:27:40;3.55;;;3.08;;
16973;SDS011;8603;46.944;7.412;2023-08-01T06:30:06;6.43;;;3.38;;
16973;SDS011;8603;46.944;7.412;2023-08-01T06:32:32;5.85;;;3.22;;
16973;SDS011;8603;46.944;7.412;2023-08-01T06:34:58;6.63;;;3.33;;
16973;SDS011;8603;46.944;7.412;2023-08-01T06:37:23;4.00;;;3.17;;
16973;SDS011;8603;46.944;7.412;2023-08-01T06:39:49;5.03;;;3.20;;
16973;SDS011;8603;46.944;7.412;2023-08-01T06:42:14;5.18;;;3.22;;
16973;SDS011;8603;46.944;7.412;2023-08-01T06:44:41;4.30;;;3.10;;
16973;SDS011;8603;46.944;7.412;2023-08-01T06:47:06;6.70;;;3.42;;
16973;SDS011;8603;46.944;7.412;2023-08-01T06:49:32;4.82;;;3.03;;
16973;SDS011;8603;46.944;7.412;2023-08-01T06:51:58;5.22;;;3.47;;
16973;SDS011;8603;46.944;7.412;2023-08-01T06:54:23;4.43;;;3.38;;
16973;SDS011;8603;46.944;7.412;2023-08-01T06:56:49;5.20;;;3.42;;
16973;SDS011;8603;46.944;7.412;2023-08-01T06:59:14;6.75;;;4.13;;
16973;SDS011;8603;46.944;7.412;2023-08-01T07:01:40;7.40;;;3.55;;
16973;SDS011;8603;46.944;7.412;2023-08-01T07:04:09;6.30;;;3.75;;
16973;SDS011;8603;46.944;7.412;2023-08-01T07:06:35;5.45;;;3.13;;
16973;SDS011;8603;46.944;7.412;2023-08-01T07:09:00;4.82;;;3.70;;
16973;SDS011;8603;46.944;7.412;2023-08-01T07:11:26;5.60;;;3.78;;
16973;SDS011;8603;46.944;7.412;2023-08-01T07:13:51;5.47;;;3.50;;
16973;SDS011;8603;46.944;7.412;2023-08-01T07:16:17;5.65;;;3.25;;
16973;SDS011;8603;46.944;7.412;2023-08-01T07:18:43;4.93;;;3.88;;
16973;SDS011;8603;46.944;7.412;2023-08-01T07:21:08;5.65;;;3.53;;
16973;SDS011;8603;46.944;7.412;2023-08-01T07:23:34;5.47;;;3.72;;
16973;SDS011;8603;46.944;7.412;2023-08-01T07:26:03;5.30;;;3.70;;
16973;SDS011;8603;46.944;7.412;2023-08-01T07:28:28;4.95;;;3.60;;
16973;SDS011;8603;46.944;7.412;2023-08-01T07:31:00;5.25;;;3.40;;
16973;SDS011;8603;46.944;7.412;2023-08-01T07:33:27;6.25;;;3.70;;
16973;SDS011;8603;46.944;7.412;2023-08-01T07:35:53;6.40;;;4.05;;
16973;SDS011;8603;46.944;7.412;2023-08-01T07:38:18;4.57;;;3.20;;
16973;SDS011;8603;46.944;7.412;2023-08-01T07:40:44;5.60;;;3.78;;
16973;SDS011;8603;46.944;7.412;2023-08-01T07:43:09;5.25;;;3.50;;
16973;SDS011;8603;46.944;7.412;2023-08-01T07:45:36;3.75;;;3.17;;
16973;SDS011;8603;46.944;7.412;2023-08-01T07:48:02;5.22;;;3.67;;
16973;SDS011;8603;46.944;7.412;2023-08-01T07:50:28;4.82;;;3.17;;
16973;SDS011;8603;46.944;7.412;2023-08-01T07:52:53;4.63;;;3.95;;
16973;SDS011;8603;46.944;7.412;2023-08-01T07:55:19;4.95;;;3.45;;
16973;SDS011;8603;46.944;7.412;2023-08-01T07:57:46;4.40;;;3.38;;
16973;SDS011;8603;46.944;7.412;2023-08-01T08:00:12;4.03;;;3.55;;
16973;SDS011;8603;46.944;7.412;2023-08-01T08:02:37;4.30;;;3.40;;
16973;SDS011;8603;46.944;7.412;2023-08-01T08:05:03;4.68;;;3.65;;
16973;SDS011;8603;46.944;7.412;2023-08-01T08:07:30;5.13;;;3.70;;
16973;SDS011;8603;46.944;7.412;2023-08-01T08:09:55;5.18;;;3.40;;
16973;SDS011;8603;46.944;7.412;2023-08-01T08:12:22;5.25;;;4.32;;
16973;SDS011;8603;46.944;7.412;2023-08-01T08:14:48;5.15;;;3.63;;
16973;SDS011;8603;46.944;7.412;2023-08-01T08:17:14;6.10;;;3.80;;
16973;SDS011;8603;46.944;7.412;2023-08-01T08:19:40;5.45;;;3.78;;
16973;SDS011;8603;46.944;7.412;2023-08-01T08:22:06;4.97;;;3.80;;
16973;SDS011;8603;46.944;7.412;2023-08-01T08:24:31;4.88;;;3.80;;
16973;SDS011;8603;46.944;7.412;2023-08-01T08:26:57;5.47;;;3.85;;
16973;SDS011;8603;46.944;7.412;2023-08-01T08:29:23;5.82;;;3.88;;
16973;SDS011;8603;46.944;7.412;2023-08-01T08:31:48;6.57;;;3.95;;
16973;SDS011;8603;46.944;7.412;2023-08-01T08:34:14;6.03;;;4.15;;
16973;SDS011;8603;46.944;7.412;2023-08-01T08:36:39;4.45;;;3.63;;
16973;SDS011;8603;46.944;7.412;2023-08-01T08:39:05;4.90;;;3.47;;
16973;SDS011;8603;46.944;7.412;2023-08-01T08:41:37;7.72;;;4.00;;
16973;SDS011;8603;46.944;7.412;2023-08-01T08:44:08;5.57;;;3.90;;
16973;SDS011;8603;46.944;7.412;2023-08-01T08:46:38;5.00;;;3.75;;
16973;SDS011;8603;46.944;7.412;2023-08-01T08:49:08;5.88;;;4.05;;
16973;SDS011;8603;46.944;7.412;2023-08-01T08:51:34;5.45;;;3.88;;
16973;SDS011;8603;46.944;7.412;2023-08-01T08:54:02;5.45;;;3.90;;
16973;SDS011;8603;46.944;7.412;2023-08-01T08:56:28;6.88;;;4.20;;
16973;SDS011;8603;46.944;7.412;2023-08-01T08:58:54;4.68;;;3.53;;
16973;SDS011;8603;46.944;7.412;2023-08-01T09:01:21;4.57;;;3.85;;
16973;SDS011;8603;46.944;7.412;2023-08-01T09:03:46;5.18;;;3.90;;
16973;SDS011;8603;46.944;7.412;2023-08-01T09:06:14;5.60;;;3.67;;
16973;SDS011;8603;46.944;7.412;2023-08-01T09:08:44;5.28;;;3.53;;
16973;SDS011;8603;46.944;7.412;2023-08-01T09:11:20;5.30;;;3.72;;
16973;SDS011;8603;46.944;7.412;2023-08-01T09:13:47;4.75;;;3.70;;
16973;SDS011;8603;46.944;7.412;2023-08-01T09:16:12;4.30;;;3.60;;
16973;SDS011;8603;46.944;7.412;2023-08-01T09:18:49;6.13;;;3.65;;
16973;SDS011;8603;46.944;7.412;2023-08-01T09:21:19;5.00;;;3.78;;
16973;SDS011;8603;46.944;7.412;2023-08-01T09:23:46;7.80;;;4.50;;
16973;SDS011;8603;46.944;7.412;2023-08-01T09:26:12;5.32;;;3.97;;
16973;SDS011;8603;46.944;7.412;2023-08-01T09:28:41;5.53;;;3.97;;
16973;SDS011;8603;46.944;7.412;2023-08-01T09:31:07;6.35;;;4.38;;
16973;SDS011;8603;46.944;7.412;2023-08-01T09:33:39;5.95;;;3.88;;
16973;SDS011;8603;46.944;7.412;2023-08-01T09:36:06;5.63;;;3.70;;
16973;SDS011;8603;46.944;7.412;2023-08-01T09:38:36;4.50;;;4.00;;
16973;SDS011;8603;46.944;7.412;2023-08-01T09:41:02;5.88;;;4.05;;
16973;SDS011;8603;46.944;7.412;2023-08-01T09:43:36;5.28;;;4.20;;
16973;SDS011;8603;46.944;7.412;2023-08-01T09:46:02;4.28;;;3.83;;
16973;SDS011;8603;46.944;7.412;2023-08-01T09:48:31;5.53;;;4.00;;
16973;SDS011;8603;46.944;7.412;2023-08-01T09:51:06;5.32;;;3.88;;
16973;SDS011;8603;46.944;7.412;2023-08-01T09:53:32;4.88;;;4.10;;
16973;SDS011;8603;46.944;7.412;2023-08-01T09:55:59;4.60;;;3.70;;
16973;SDS011;8603;46.944;7.412;2023-08-01T09:58:34;5.28;;;3.80;;
16973;SDS011;8603;46.944;7.412;2023-08-01T10:01:00;5.72;;;3.95;;
16973;SDS011;8603;46.944;7.412;2023-08-01T10:03:29;5.18;;;3.97;;
16973;SDS011;8603;46.944;7.412;2023-08-01T10:05:55;5.90;;;3.88;;
16973;SDS011;8603;46.944;7.412;2023-08-01T10:08:23;4.90;;;4.00;;
16973;SDS011;8603;46.944;7.412;2023-08-01T10:10:53;6.38;;;4.10;;
16973;SDS011;8603;46.944;7.412;2023-08-01T10:13:21;4.68;;;3.97;;
16973;SDS011;8603;46.944;7.412;2023-08-01T10:15:49;4.10;;;3.70;;
16973;SDS011;8603;46.944;7.412;2023-08-01T10:18:16;6.38;;;4.03;;
16973;SDS011;8603;46.944;7.412;2023-08-01T10:20:42;5.03;;;3.50;;
16973;SDS011;8603;46.944;7.412;2023-08-01T10:23:09;4.22;;;3.38;;
16973;SDS011;8603;46.944;7.412;2023-08-01T10:25:36;4.68;;;3.60;;
16973;SDS011;8603;46.944;7.412;2023-08-01T10:28:04;4.97;;;3.30;;
16973;SDS011;8603;46.944;7.412;2023-08-01T10:30:31;5.45;;;3.00;;
16973;SDS011;8603;46.944;7.412;2023-08-01T10:32:57;3.33;;;2.65;;
16973;SDS011;8603;46.944;7.412;2023-08-01T10:35:36;3.90;;;3.03;;
16973;SDS011;8603;46.944;7.412;2023-08-01T10:38:04;3.90;;;2.97;;
16973;SDS011;8603;46.944;7.412;2023-08-01T10:40:40;3.33;;;2.88;;
16973;SDS011;8603;46.944;7.412;2023-08-01T10:43:23;3.20;;;2.70;;
16973;SDS011;8603;46.944;7.412;2023-08-01T10:46:02;3.30;;;2.65;;
16973;SDS011;8603;46.944;7.412;2023-08-01T10:48:28;3.10;;;2.78;;
16973;SDS011;8603;46.944;7.412;2023-08-01T10:50:54;3.47;;;3.10;;
16973;SDS011;8603;46.944;7.412;2023-08-01T10:53:21;4.07;;;2.53;;
16973;SDS011;8603;46.944;7.412;2023-08-01T10:55:47;3.20;;;2.75;;
16973;SDS011;8603;46.944;7.412;2023-08-01T10:58:13;5.40;;;2.60;;
16973;SDS011;8603;46.944;7.412;2023-08-01T11:00:41;3.13;;;2.78;;
16973;SDS011;8603;46.944;7.412;2023-08-01T11:03:07;2.60;;;2.40;;
16973;SDS011;8603;46.944;7.412;2023-08-01T11:05:33;3.15;;;2.70;;
16973;SDS011;8603;46.944;7.412;2023-08-01T11:08:00;2.97;;;2.50;;
16973;SDS011;8603;46.944;7.412;2023-08-01T11:10:30;2.75;;;2.55;;
16973;SDS011;8603;46.944;7.412;2023-08-01T11:12:57;2.92;;;2.40;;
16973;SDS011;8603;46.944;7.412;2023-08-01T11:15:24;4.07;;;2.67;;
16973;SDS011;8603;46.944;7.412;2023-08-01T11:17:50;3.40;;;2.47;;
16973;SDS011;8603;46.944;7.412;2023-08-01T11:20:22;4.28;;;2.67;;
16973;SDS011;8603;46.944;7.412;2023-08-01T11:22:55;3.55;;;2.90;;
16973;SDS011;8603;46.944;7.412;2023-08-01T11:25:46;3.17;;;2.67;;
16973;SDS011;8603;46.944;7.412;2023-08-01T11:28:15;6.07;;;2.88;;
16973;SDS011;8603;46.944;7.412;2023-08-01T11:30:42;4.10;;;2.63;;
16973;SDS011;8603;46.944;7.412;2023-08-01T11:36:06;4.32;;;2.83;;
16973;SDS011;8603;46.944;7.412;2023-08-01T11:38:33;5.25;;;3.03;;
16973;SDS011;8603;46.944;7.412;2023-08-01T11:41:00;4.03;;;2.90;;
16973;SDS011;8603;46.944;7.412;2023-08-01T11:43:26;5.68;;;2.88;;
16973;SDS011;8603;46.944;7.412;2023-08-01T11:46:02;3.47;;;2.85;;
16973;SDS011;8603;46.944;7.412;2023-08-01T11:48:27;3.60;;;2.83;;
16973;SDS011;8603;46.944;7.412;2023-08-01T11:51:00;3.35;;;2.90;;
16973;SDS011;8603;46.944;7.412;2023-08-01T11:53:27;3.15;;;2.63;;
16973;SDS011;8603;46.944;7.412;2023-08-01T11:55:53;2.55;;;2.35;;
16973;SDS011;8603;46.944;7.412;2023-08-01T11:58:27;4.07;;;2.60;;
16973;SDS011;8603;46.944;7.412;2023-08-01T12:01:05;3.67;;;2.42;;
16973;SDS011;8603;46.944;7.412;2023-08-01T12:03:31;4.13;;;2.60;;
16973;SDS011;8603;46.944;7.412;2023-08-01T12:06:07;3.58;;;2.53;;
16973;SDS011;8603;46.944;7.412;2023-08-01T12:08:33;3.90;;;2.70;;
16973;SDS011;8603;46.944;7.412;2023-08-01T12:10:59;3.03;;;2.50;;
16973;SDS011;8603;46.944;7.412;2023-08-01T12:13:25;3.53;;;2.42;;
16973;SDS011;8603;46.944;7.412;2023-08-01T12:15:52;3.05;;;1.90;;
16973;SDS011;8603;46.944;7.412;2023-08-01T12:18:19;3.17;;;2.80;;
16973;SDS011;8603;46.944;7.412;2023-08-01T12:20:52;2.40;;;2.13;;
16973;SDS011;8603;46.944;7.412;2023-08-01T12:23:18;8.48;;;2.20;;
16973;SDS011;8603;46.944;7.412;2023-08-01T12:25:44;6.32;;;2.80;;
16973;SDS011;8603;46.944;7.412;2023-08-01T12:28:11;4.07;;;3.28;;
16973;SDS011;8603;46.944;7.412;2023-08-01T12:30:41;3.85;;;2.50;;
16973;SDS011;8603;46.944;7.412;2023-08-01T12:33:08;4.03;;;3.00;;
16973;SDS011;8603;46.944;7.412;2023-08-01T12:35:38;4.10;;;2.70;;
16973;SDS011;8603;46.944;7.412;2023-08-01T12:38:04;3.65;;;2.78;;
16973;SDS011;8603;46.944;7.412;2023-08-01T12:40:30;3.53;;;3.00;;
16973;SDS011;8603;46.944;7.412;2023-08-01T12:42:55;3.92;;;2.70;;
16973;SDS011;8603;46.944;7.412;2023-08-01T12:45:21;3.65;;;2.88;;
16973;SDS011;8603;46.944;7.412;2023-08-01T12:47:48;5.20;;;2.80;;
16973;SDS011;8603;46.944;7.412;2023-08-01T12:50:14;4.28;;;2.75;;
16973;SDS011;8603;46.944;7.412;2023-08-01T12:52:40;3.53;;;2.45;;
16973;SDS011;8603;46.944;7.412;2023-08-01T12:55:06;4.38;;;2.25;;
16973;SDS011;8603;46.944;7.412;2023-08-01T12:57:32;3.95;;;2.50;;
16973;SDS011;8603;46.944;7.412;2023-08-01T12:59:58;3.83;;;2.40;;
16973;SDS011;8603;46.944;7.412;2023-08-01T13:02:24;3.72;;;2.63;;
16973;SDS011;8603;46.944;7.412;2023-08-01T13:04:49;3.67;;;2.30;;
16973;SDS011;8603;46.944;7.412;2023-08-01T13:07:15;2.97;;;2.47;;
16973;SDS011;8603;46.944;7.412;2023-08-01T13:09:40;3.25;;;2.50;;
16973;SDS011;8603;46.944;7.412;2023-08-01T13:12:06;4.00;;;2.50;;
16973;SDS011;8603;46.944;7.412;2023-08-01T13:14:32;3.00;;;2.70;;
16973;SDS011;8603;46.944;7.412;2023-08-01T13:16:58;4.18;;;2.60;;
16973;SDS011;8603;46.944;7.412;2023-08-01T13:19:24;4.35;;;2.60;;
16973;SDS011;8603;46.944;7.412;2023-08-01T13:21:50;3.85;;;2.70;;
16973;SDS011;8603;46.944;7.412;2023-08-01T13:24:16;3.30;;;2.70;;
16973;SDS011;8603;46.944;7.412;2023-08-01T13:26:41;4.78;;;2.80;;
16973;SDS011;8603;46.944;7.412;2023-08-01T13:29:07;3.42;;;2.88;;
16973;SDS011;8603;46.944;7.412;2023-08-01T13:31:32;3.15;;;2.47;;
16973;SDS011;8603;46.944;7.412;2023-08-01T13:33:58;4.30;;;2.80;;
16973;SDS011;8603;46.944;7.412;2023-08-01T13:36:24;4.55;;;2.95;;
16973;SDS011;8603;46.944;7.412;2023-08-01T13:38:49;4.90;;;3.00;;
16973;SDS011;8603;46.944;7.412;2023-08-01T13:41:15;5.88;;;3.17;;
16973;SDS011;8603;46.944;7.412;2023-08-01T13:43:40;3.45;;;2.85;;
16973;SDS011;8603;46.944;7.412;2023-08-01T13:46:16;3.75;;;3.15;;
16973;SDS011;8603;46.944;7.412;2023-08-01T13:48:44;3.38;;;2.83;;
16973;SDS011;8603;46.944;7.412;2023-08-01T13:51:10;5.88;;;3.30;;
16973;SDS011;8603;46.944;7.412;2023-08-01T13:53:37;3.50;;;2.92;;
16973;SDS011;8603;46.944;7.412;2023-08-01T13:56:11;4.18;;;3.13;;
16973;SDS011;8603;46.944;7.412;2023-08-01T13:58:38;3.70;;;3.28;;
16973;SDS011;8603;46.944;7.412;2023-08-01T14:01:05;2.72;;;2.53;;
16973;SDS011;8603;46.944;7.412;2023-08-01T14:03:34;4.13;;;2.85;;
16973;SDS011;8603;46.944;7.412;2023-08-01T14:06:08;3.70;;;3.10;;
16973;SDS011;8603;46.944;7.412;2023-08-01T14:08:35;3.05;;;2.70;;
16973;SDS011;8603;46.944;7.412;2023-08-01T14:11:03;6.00;;;2.90;;
16973;SDS011;8603;46.944;7.412;2023-08-01T14:13:30;3.42;;;2.88;;
16973;SDS011;8603;46.944;7.412;2023-08-01T14:15:57;3.08;;;2.78;;
16973;SDS011;8603;46.944;7.412;2023-08-01T14:18:22;2.92;;;2.50;;
16973;SDS011;8603;46.944;7.412;2023-08-01T14:20:51;7.30;;;2.90;;
16973;SDS011;8603;46.944;7.412;2023-08-01T14:23:18;2.65;;;2.45;;
16973;SDS011;8603;46.944;7.412;2023-08-01T14:25:44;3.95;;;3.20;;
16973;SDS011;8603;46.944;7.412;2023-08-01T14:28:09;3.78;;;2.47;;
16973;SDS011;8603;46.944;7.412;2023-08-01T14:30:36;3.63;;;3.00;;
16973;SDS011;8603;46.944;7.412;2023-08-01T14:33:02;3.85;;;2.75;;
16973;SDS011;8603;46.944;7.412;2023-08-01T14:35:29;2.88;;;2.58;;
16973;SDS011;8603;46.944;7.412;2023-08-01T14:37:55;4.78;;;2.40;;
16973;SDS011;8603;46.944;7.412;2023-08-01T14:40:23;2.63;;;2.42;;
16973;SDS011;8603;46.944;7.412;2023-08-01T14:42:49;3.08;;;2.75;;
16973;SDS011;8603;46.944;7.412;2023-08-01T14:45:15;3.78;;;2.75;;
16973;SDS011;8603;46.944;7.412;2023-08-01T14:47:42;4.32;;;3.20;;
16973;SDS011;8603;46.944;7.412;2023-08-01T14:50:08;3.00;;;2.70;;
16973;SDS011;8603;46.944;7.412;2023-08-01T14:52:37;3.30;;;2.47;;
16973;SDS011;8603;46.944;7.412;2023-08-01T14:55:10;4.88;;;3.17;;
16973;SDS011;8603;46.944;7.412;2023-08-01T14:57:35;3.03;;;2.72;;
16973;SDS011;8603;46.944;7.412;2023-08-01T15:00:02;3.72;;;3.38;;